sensor_id;sensor_type;location;lat;lon;timestamp;P1;P2;P0
71858;PMS5003;59713;50.866;4.324;2024-02-21T00:00:23;16;13;
71858;PMS5003;59713;50.866;4.324;2024-02-21T00:01:23;16;13;
71858;PMS5003;59713;50.866;4.324;2024-02-21T00:02:23;21;16;
71858;PMS5003;59713;50.866;4.324;2024-02-21T00:03:23;21;16;
71858;PMS5003;59713;50.866;4.324;2024-02-21T00:04:23;21;16;
71858;PMS5003;59713;50.866;4.324;2024-02-21T00:04:23;21;16;
71858;PMS5003;59713;50.866;4.324;2024-02-21T00:05:23;16;13;
71858;PMS5003;59713;50.866;4.324;2024-02-21T00:06:23;16;13;
71858;PMS5003;59713;50.866;4.324;2024-02-21T00:07:23;16;13;
71858;PMS5003;59713;50.866;4.324;2024-02-21T00:08:23;22;15;
71858;PMS5003;59713;50.866;4.324;2024-02-21T00:09:23;22;15;
71858;PMS5003;59713;50.866;4.324;2024-02-21T00:10:23;22;15;
71858;PMS5003;59713;50.866;4.324;2024-02-21T00:11:23;17;14;
71858;PMS5003;59713;50.866;4.324;2024-02-21T00:12:23;17;14;
71858;PMS5003;59713;50.866;4.324;2024-02-21T00:13:23;17;14;
71858;PMS5003;59713;50.866;4.324;2024-02-21T00:13:23;17;14;
71858;PMS5003;59713;50.866;4.324;2024-02-21T00:14:23;16;13;
71858;PMS5003;59713;50.866;4.324;2024-02-21T00:15:24;16;13;
71858;PMS5003;59713;50.866;4.324;2024-02-21T00:16:23;16;13;
71858;PMS5003;59713;50.866;4.324;2024-02-21T00:17:23;18;15;
71858;PMS5003;59713;50.866;4.324;2024-02-21T00:18:23;18;15;
71858;PMS5003;59713;50.866;4.324;2024-02-21T00:19:23;18;15;
71858;PMS5003;59713;50.866;4.324;2024-02-21T00:20:23;17;14;
71858;PMS5003;59713;50.866;4.324;2024-02-21T00:21:23;17;14;
71858;PMS5003;59713;50.866;4.324;2024-02-21T00:22:23;17;14;
71858;PMS5003;59713;50.866;4.324;2024-02-21T00:22:23;17;14;
71858;PMS5003;59713;50.866;4.324;2024-02-21T00:23:23;19;16;
71858;PMS5003;59713;50.866;4.324;2024-02-21T00:24:23;19;16;
71858;PMS5003;59713;50.866;4.324;2024-02-21T00:25:23;19;16;
71858;PMS5003;59713;50.866;4.324;2024-02-21T00:26:23;16;13;
71858;PMS5003;59713;50.866;4.324;2024-02-21T00:27:23;16;13;
71858;PMS5003;59713;50.866;4.324;2024-02-21T00:28:23;16;13;
71858;PMS5003;59713;50.866;4.324;2024-02-21T00:29:23;20;17;
71858;PMS5003;59713;50.866;4.324;2024-02-21T00:30:23;20;17;
71858;PMS5003;59713;50.866;4.324;2024-02-21T00:31:23;20;17;
71858;PMS5003;59713;50.866;4.324;2024-02-21T00:31:23;20;17;
71858;PMS5003;59713;50.866;4.324;2024-02-21T00:32:23;15;11;
71858;PMS5003;59713;50.866;4.324;2024-02-21T00:33:23;15;11;
71858;PMS5003;59713;50.866;4.324;2024-02-21T00:34:23;15;11;
71858;PMS5003;59713;50.866;4.324;2024-02-21T00:35:24;18;15;
71858;PMS5003;59713;50.866;4.324;2024-02-21T00:36:23;18;15;
71858;PMS5003;59713;50.866;4.324;2024-02-21T00:37:23;18;15;
71858;PMS5003;59713;50.866;4.324;2024-02-21T00:38:23;16;14;
71858;PMS5003;59713;50.866;4.324;2024-02-21T00:39:23;16;14;
71858;PMS5003;59713;50.866;4.324;2024-02-21T00:40:23;16;14;
71858;PMS5003;59713;50.866;4.324;2024-02-21T00:40:23;16;14;
71858;PMS5003;59713;50.866;4.324;2024-02-21T00:41:23;17;15;
71858;PMS5003;59713;50.866;4.324;2024-02-21T00:42:23;17;15;
71858;PMS5003;59713;50.866;4.324;2024-02-21T00:43:23;17;15;
71858;PMS5003;59713;50.866;4.324;2024-02-21T00:44:23;22;15;
71858;PMS5003;59713;50.866;4.324;2024-02-21T00:45:23;22;15;
71858;PMS5003;59713;50.866;4.324;2024-02-21T00:46:23;22;15;
71858;PMS5003;59713;50.866;4.324;2024-02-21T00:47:23;14;13;
71858;PMS5003;59713;50.866;4.324;2024-02-21T00:48:23;14;13;
71858;PMS5003;59713;50.866;4.324;2024-02-21T00:49:23;14;13;
71858;PMS5003;59713;50.866;4.324;2024-02-21T00:49:23;14;13;
71858;PMS5003;59713;50.866;4.324;2024-02-21T00:50:23;4;3;
71858;PMS5003;59713;50.866;4.324;2024-02-21T00:51:23;4;3;
71858;PMS5003;59713;50.866;4.324;2024-02-21T00:52:23;4;3;
71858;PMS5003;59713;50.866;4.324;2024-02-21T00:53:23;17;15;
71858;PMS5003;59713;50.866;4.324;2024-02-21T00:54:23;17;15;
71858;PMS5003;59713;50.866;4.324;2024-02-21T00:55:23;17;15;
71858;PMS5003;59713;50.866;4.324;2024-02-21T00:56:23;15;13;
71858;PMS5003;59713;50.866;4.324;2024-02-21T00:57:23;15;13;
71858;PMS5003;59713;50.866;4.324;2024-02-21T00:58:23;15;13;
71858;PMS5003;59713;50.866;4.324;2024-02-21T00:58:23;15;13;
71858;PMS5003;59713;50.866;4.324;2024-02-21T00:59:23;14;12;
71858;PMS5003;59713;50.866;4.324;2024-02-21T01:00:23;14;12;
71858;PMS5003;59713;50.866;4.324;2024-02-21T01:01:23;14;12;
71858;PMS5003;59713;50.866;4.324;2024-02-21T01:02:23;17;14;
71858;PMS5003;59713;50.866;4.324;2024-02-21T01:03:23;17;14;
71858;PMS5003;59713;50.866;4.324;2024-02-21T01:04:23;17;14;
71858;PMS5003;59713;50.866;4.324;2024-02-21T01:05:23;22;14;
71858;PMS5003;59713;50.866;4.324;2024-02-21T01:06:23;22;14;
71858;PMS5003;59713;50.866;4.324;2024-02-21T01:07:23;22;14;
71858;PMS5003;59713;50.866;4.324;2024-02-21T01:08:23;18;13;
71858;PMS5003;59713;50.866;4.324;2024-02-21T01:08:23;18;13;
71858;PMS5003;59713;50.866;4.324;2024-02-21T01:09:23;18;13;
71858;PMS5003;59713;50.866;4.324;2024-02-21T01:10:23;18;13;
71858;PMS5003;59713;50.866;4.324;2024-02-21T01:11:23;18;17;
71858;PMS5003;59713;50.866;4.324;2024-02-21T01:12:23;18;17;
71858;PMS5003;59713;50.866;4.324;2024-02-21T01:13:23;18;17;
71858;PMS5003;59713;50.866;4.324;2024-02-21T01:14:23;21;12;
71858;PMS5003;59713;50.866;4.324;2024-02-21T01:15:23;21;12;
71858;PMS5003;59713;50.866;4.324;2024-02-21T01:16:23;21;12;
71858;PMS5003;59713;50.866;4.324;2024-02-21T01:17:23;18;13;
71858;PMS5003;59713;50.866;4.324;2024-02-21T01:17:23;18;13;
71858;PMS5003;59713;50.866;4.324;2024-02-21T01:18:23;18;13;
71858;PMS5003;59713;50.866;4.324;2024-02-21T01:19:23;18;13;
71858;PMS5003;59713;50.866;4.324;2024-02-21T01:20:23;18;14;
71858;PMS5003;59713;50.866;4.324;2024-02-21T01:21:23;18;14;
71858;PMS5003;59713;50.866;4.324;2024-02-21T01:22:23;18;14;
71858;PMS5003;59713;50.866;4.324;2024-02-21T01:23:23;22;15;
71858;PMS5003;59713;50.866;4.324;2024-02-21T01:24:23;22;15;
71858;PMS5003;59713;50.866;4.324;2024-02-21T01:25:23;22;15;
71858;PMS5003;59713;50.866;4.324;2024-02-21T01:26:23;13;9;
71858;PMS5003;59713;50.866;4.324;2024-02-21T01:26:23;13;9;
71858;PMS5003;59713;50.866;4.324;2024-02-21T01:27:23;13;9;
71858;PMS5003;59713;50.866;4.324;2024-02-21T01:28:23;13;9;
71858;PMS5003;59713;50.866;4.324;2024-02-21T01:29:23;13;13;
71858;PMS5003;59713;50.866;4.324;2024-02-21T01:30:23;13;13;
71858;PMS5003;59713;50.866;4.324;2024-02-21T01:31:23;13;13;
71858;PMS5003;59713;50.866;4.324;2024-02-21T01:32:23;11;8;
71858;PMS5003;59713;50.866;4.324;2024-02-21T01:33:23;11;8;
71858;PMS5003;59713;50.866;4.324;2024-02-21T01:34:23;11;8;
71858;PMS5003;59713;50.866;4.324;2024-02-21T01:35:23;16;15;
71858;PMS5003;59713;50.866;4.324;2024-02-21T01:35:23;16;15;
71858;PMS5003;59713;50.866;4.324;2024-02-21T01:36:23;16;15;
71858;PMS5003;59713;50.866;4.324;2024-02-21T01:37:23;16;15;
71858;PMS5003;59713;50.866;4.324;2024-02-21T01:38:23;11;11;
71858;PMS5003;59713;50.866;4.324;2024-02-21T01:39:23;11;11;
71858;PMS5003;59713;50.866;4.324;2024-02-21T01:40:23;11;11;
71858;PMS5003;59713;50.866;4.324;2024-02-21T01:41:23;16;15;
71858;PMS5003;59713;50.866;4.324;2024-02-21T01:42:23;16;15;
71858;PMS5003;59713;50.866;4.324;2024-02-21T01:43:23;16;15;
71858;PMS5003;59713;50.866;4.324;2024-02-21T01:44:23;15;13;
71858;PMS5003;59713;50.866;4.324;2024-02-21T01:44:23;15;13;
71858;PMS5003;59713;50.866;4.324;2024-02-21T01:45:25;15;13;
71858;PMS5003;59713;50.866;4.324;2024-02-21T01:46:23;15;13;
71858;PMS5003;59713;50.866;4.324;2024-02-21T01:47:23;17;14;
71858;PMS5003;59713;50.866;4.324;2024-02-21T01:48:23;17;14;
71858;PMS5003;59713;50.866;4.324;2024-02-21T01:49:23;17;14;
71858;PMS5003;59713;50.866;4.324;2024-02-21T01:50:23;11;10;
71858;PMS5003;59713;50.866;4.324;2024-02-21T01:51:23;11;10;
71858;PMS5003;59713;50.866;4.324;2024-02-21T01:52:23;11;10;
71858;PMS5003;59713;50.866;4.324;2024-02-21T01:53:25;15;14;
71858;PMS5003;59713;50.866;4.324;2024-02-21T01:53:27;15;14;
71858;PMS5003;59713;50.866;4.324;2024-02-21T01:54:23;15;14;
71858;PMS5003;59713;50.866;4.324;2024-02-21T01:55:23;15;14;
71858;PMS5003;59713;50.866;4.324;2024-02-21T01:56:23;17;12;
71858;PMS5003;59713;50.866;4.324;2024-02-21T01:57:23;17;12;
71858;PMS5003;59713;50.866;4.324;2024-02-21T01:58:23;17;12;
71858;PMS5003;59713;50.866;4.324;2024-02-21T01:59:23;32;20;
71858;PMS5003;59713;50.866;4.324;2024-02-21T02:00:23;32;20;
71858;PMS5003;59713;50.866;4.324;2024-02-21T02:01:23;32;20;
71858;PMS5003;59713;50.866;4.324;2024-02-21T02:02:23;19;16;
71858;PMS5003;59713;50.866;4.324;2024-02-21T02:02:23;19;16;
71858;PMS5003;59713;50.866;4.324;2024-02-21T02:03:23;19;16;
71858;PMS5003;59713;50.866;4.324;2024-02-21T02:04:23;19;16;
71858;PMS5003;59713;50.866;4.324;2024-02-21T02:05:23;24;17;
71858;PMS5003;59713;50.866;4.324;2024-02-21T02:06:24;24;17;
71858;PMS5003;59713;50.866;4.324;2024-02-21T02:07:23;24;17;
71858;PMS5003;59713;50.866;4.324;2024-02-21T02:08:23;17;15;
71858;PMS5003;59713;50.866;4.324;2024-02-21T02:09:23;17;15;
71858;PMS5003;59713;50.866;4.324;2024-02-21T02:10:23;17;15;
71858;PMS5003;59713;50.866;4.324;2024-02-21T02:11:23;19;15;
71858;PMS5003;59713;50.866;4.324;2024-02-21T02:11:23;19;15;
71858;PMS5003;59713;50.866;4.324;2024-02-21T02:12:23;19;15;
71858;PMS5003;59713;50.866;4.324;2024-02-21T02:13:23;19;15;
71858;PMS5003;59713;50.866;4.324;2024-02-21T02:14:23;11;11;
71858;PMS5003;59713;50.866;4.324;2024-02-21T02:15:23;11;11;
71858;PMS5003;59713;50.866;4.324;2024-02-21T02:16:23;11;11;
71858;PMS5003;59713;50.866;4.324;2024-02-21T02:17:23;17;17;
71858;PMS5003;59713;50.866;4.324;2024-02-21T02:18:23;17;17;
71858;PMS5003;59713;50.866;4.324;2024-02-21T02:19:23;17;17;
71858;PMS5003;59713;50.866;4.324;2024-02-21T02:20:23;22;18;
71858;PMS5003;59713;50.866;4.324;2024-02-21T02:20:23;22;18;
71858;PMS5003;59713;50.866;4.324;2024-02-21T02:21:26;22;18;
71858;PMS5003;59713;50.866;4.324;2024-02-21T02:22:25;22;18;
71858;PMS5003;59713;50.866;4.324;2024-02-21T02:23:24;16;13;
71858;PMS5003;59713;50.866;4.324;2024-02-21T02:24:23;16;13;
71858;PMS5003;59713;50.866;4.324;2024-02-21T02:25:23;16;13;
71858;PMS5003;59713;50.866;4.324;2024-02-21T02:26:23;24;18;
71858;PMS5003;59713;50.866;4.324;2024-02-21T02:27:23;24;18;
71858;PMS5003;59713;50.866;4.324;2024-02-21T02:28:23;24;18;
71858;PMS5003;59713;50.866;4.324;2024-02-21T02:29:23;23;19;
71858;PMS5003;59713;50.866;4.324;2024-02-21T02:29:23;23;19;
71858;PMS5003;59713;50.866;4.324;2024-02-21T02:30:23;23;19;
71858;PMS5003;59713;50.866;4.324;2024-02-21T02:31:23;23;19;
71858;PMS5003;59713;50.866;4.324;2024-02-21T02:32:23;24;15;
71858;PMS5003;59713;50.866;4.324;2024-02-21T02:33:23;24;15;
71858;PMS5003;59713;50.866;4.324;2024-02-21T02:34:23;24;15;
71858;PMS5003;59713;50.866;4.324;2024-02-21T02:35:23;26;22;
71858;PMS5003;59713;50.866;4.324;2024-02-21T02:36:23;26;22;
71858;PMS5003;59713;50.866;4.324;2024-02-21T02:37:23;26;22;
71858;PMS5003;59713;50.866;4.324;2024-02-21T02:38:23;16;15;
71858;PMS5003;59713;50.866;4.324;2024-02-21T02:38:23;16;15;
71858;PMS5003;59713;50.866;4.324;2024-02-21T02:39:23;16;15;
71858;PMS5003;59713;50.866;4.324;2024-02-21T02:40:23;16;15;
71858;PMS5003;59713;50.866;4.324;2024-02-21T02:41:23;15;14;
71858;PMS5003;59713;50.866;4.324;2024-02-21T02:42:23;15;14;
71858;PMS5003;59713;50.866;4.324;2024-02-21T02:43:23;15;14;
71858;PMS5003;59713;50.866;4.324;2024-02-21T02:44:23;19;15;
71858;PMS5003;59713;50.866;4.324;2024-02-21T02:45:23;19;15;
71858;PMS5003;59713;50.866;4.324;2024-02-21T02:46:23;19;15;
71858;PMS5003;59713;50.866;4.324;2024-02-21T02:47:23;18;18;
71858;PMS5003;59713;50.866;4.324;2024-02-21T02:47:23;18;18;
71858;PMS5003;59713;50.866;4.324;2024-02-21T02:48:23;18;18;
71858;PMS5003;59713;50.866;4.324;2024-02-21T02:49:23;18;18;
71858;PMS5003;59713;50.866;4.324;2024-02-21T02:50:23;16;16;
71858;PMS5003;59713;50.866;4.324;2024-02-21T02:51:23;16;16;
71858;PMS5003;59713;50.866;4.324;2024-02-21T02:52:23;16;16;
71858;PMS5003;59713;50.866;4.324;2024-02-21T02:53:23;24;17;
71858;PMS5003;59713;50.866;4.324;2024-02-21T02:54:23;24;17;
71858;PMS5003;59713;50.866;4.324;2024-02-21T02:55:23;24;17;
71858;PMS5003;59713;50.866;4.324;2024-02-21T02:56:23;19;19;
71858;PMS5003;59713;50.866;4.324;2024-02-21T02:56:23;19;19;
71858;PMS5003;59713;50.866;4.324;2024-02-21T02:57:23;19;19;
71858;PMS5003;59713;50.866;4.324;2024-02-21T02:58:23;19;19;
71858;PMS5003;59713;50.866;4.324;2024-02-21T02:59:23;28;20;
71858;PMS5003;59713;50.866;4.324;2024-02-21T03:00:23;28;20;
71858;PMS5003;59713;50.866;4.324;2024-02-21T03:01:23;28;20;
71858;PMS5003;59713;50.866;4.324;2024-02-21T03:02:23;23;18;
71858;PMS5003;59713;50.866;4.324;2024-02-21T03:03:23;23;18;
71858;PMS5003;59713;50.866;4.324;2024-02-21T03:04:23;23;18;
71858;PMS5003;59713;50.866;4.324;2024-02-21T03:05:23;23;20;
71858;PMS5003;59713;50.866;4.324;2024-02-21T03:05:23;23;20;
71858;PMS5003;59713;50.866;4.324;2024-02-21T03:06:23;23;20;
71858;PMS5003;59713;50.866;4.324;2024-02-21T03:07:24;23;20;
71858;PMS5003;59713;50.866;4.324;2024-02-21T03:08:23;26;19;
71858;PMS5003;59713;50.866;4.324;2024-02-21T03:09:23;26;19;
71858;PMS5003;59713;50.866;4.324;2024-02-21T03:10:24;26;19;
71858;PMS5003;59713;50.866;4.324;2024-02-21T03:11:23;22;17;
71858;PMS5003;59713;50.866;4.324;2024-02-21T03:12:23;22;17;
71858;PMS5003;59713;50.866;4.324;2024-02-21T03:13:23;22;17;
71858;PMS5003;59713;50.866;4.324;2024-02-21T03:14:23;27;18;
71858;PMS5003;59713;50.866;4.324;2024-02-21T03:14:23;27;18;
71858;PMS5003;59713;50.866;4.324;2024-02-21T03:15:23;27;18;
71858;PMS5003;59713;50.866;4.324;2024-02-21T03:16:23;27;18;
71858;PMS5003;59713;50.866;4.324;2024-02-21T03:17:24;25;19;
71858;PMS5003;59713;50.866;4.324;2024-02-21T03:18:23;25;19;
71858;PMS5003;59713;50.866;4.324;2024-02-21T03:19:24;25;19;
71858;PMS5003;59713;50.866;4.324;2024-02-21T03:20:23;17;17;
71858;PMS5003;59713;50.866;4.324;2024-02-21T03:21:23;17;17;
71858;PMS5003;59713;50.866;4.324;2024-02-21T03:22:23;17;17;
71858;PMS5003;59713;50.866;4.324;2024-02-21T03:23:23;22;17;
71858;PMS5003;59713;50.866;4.324;2024-02-21T03:23:23;22;17;
71858;PMS5003;59713;50.866;4.324;2024-02-21T03:24:23;22;17;
71858;PMS5003;59713;50.866;4.324;2024-02-21T03:25:23;22;17;
71858;PMS5003;59713;50.866;4.324;2024-02-21T03:26:23;19;16;
71858;PMS5003;59713;50.866;4.324;2024-02-21T03:27:23;19;16;
71858;PMS5003;59713;50.866;4.324;2024-02-21T03:28:23;19;16;
71858;PMS5003;59713;50.866;4.324;2024-02-21T03:29:23;21;17;
71858;PMS5003;59713;50.866;4.324;2024-02-21T03:30:23;21;17;
71858;PMS5003;59713;50.866;4.324;2024-02-21T03:31:23;21;17;
71858;PMS5003;59713;50.866;4.324;2024-02-21T03:32:23;19;17;
71858;PMS5003;59713;50.866;4.324;2024-02-21T03:32:23;19;17;
71858;PMS5003;59713;50.866;4.324;2024-02-21T03:33:23;19;17;
71858;PMS5003;59713;50.866;4.324;2024-02-21T03:34:23;19;17;
71858;PMS5003;59713;50.866;4.324;2024-02-21T03:35:23;21;15;
71858;PMS5003;59713;50.866;4.324;2024-02-21T03:36:23;21;15;
71858;PMS5003;59713;50.866;4.324;2024-02-21T03:37:23;21;15;
71858;PMS5003;59713;50.866;4.324;2024-02-21T03:38:23;26;19;
71858;PMS5003;59713;50.866;4.324;2024-02-21T03:39:23;26;19;
71858;PMS5003;59713;50.866;4.324;2024-02-21T03:40:23;26;19;
71858;PMS5003;59713;50.866;4.324;2024-02-21T03:41:23;19;17;
71858;PMS5003;59713;50.866;4.324;2024-02-21T03:41:24;19;17;
71858;PMS5003;59713;50.866;4.324;2024-02-21T03:42:23;19;17;
71858;PMS5003;59713;50.866;4.324;2024-02-21T03:43:23;19;17;
71858;PMS5003;59713;50.866;4.324;2024-02-21T03:44:23;18;17;
71858;PMS5003;59713;50.866;4.324;2024-02-21T03:45:23;18;17;
71858;PMS5003;59713;50.866;4.324;2024-02-21T03:46:23;18;17;
71858;PMS5003;59713;50.866;4.324;2024-02-21T03:47:23;18;15;
71858;PMS5003;59713;50.866;4.324;2024-02-21T03:48:23;18;15;
71858;PMS5003;59713;50.866;4.324;2024-02-21T03:49:23;18;15;
71858;PMS5003;59713;50.866;4.324;2024-02-21T03:50:23;15;14;
71858;PMS5003;59713;50.866;4.324;2024-02-21T03:50:23;15;14;
71858;PMS5003;59713;50.866;4.324;2024-02-21T03:51:23;15;14;
71858;PMS5003;59713;50.866;4.324;2024-02-21T03:52:23;15;14;
71858;PMS5003;59713;50.866;4.324;2024-02-21T03:53:23;23;21;
71858;PMS5003;59713;50.866;4.324;2024-02-21T03:54:24;23;21;
71858;PMS5003;59713;50.866;4.324;2024-02-21T03:55:23;23;21;
71858;PMS5003;59713;50.866;4.324;2024-02-21T03:56:23;15;15;
71858;PMS5003;59713;50.866;4.324;2024-02-21T03:57:23;15;15;
71858;PMS5003;59713;50.866;4.324;2024-02-21T03:58:23;15;15;
71858;PMS5003;59713;50.866;4.324;2024-02-21T03:59:23;22;18;
71858;PMS5003;59713;50.866;4.324;2024-02-21T04:00:23;22;18;
71858;PMS5003;59713;50.866;4.324;2024-02-21T04:00:23;22;18;
71858;PMS5003;59713;50.866;4.324;2024-02-21T04:01:23;22;18;
71858;PMS5003;59713;50.866;4.324;2024-02-21T04:02:23;22;21;
71858;PMS5003;59713;50.866;4.324;2024-02-21T04:03:23;22;21;
71858;PMS5003;59713;50.866;4.324;2024-02-21T04:04:23;22;21;
71858;PMS5003;59713;50.866;4.324;2024-02-21T04:05:23;22;19;
71858;PMS5003;59713;50.866;4.324;2024-02-21T04:06:23;22;19;
71858;PMS5003;59713;50.866;4.324;2024-02-21T04:07:23;22;19;
71858;PMS5003;59713;50.866;4.324;2024-02-21T04:08:23;26;21;
71858;PMS5003;59713;50.866;4.324;2024-02-21T04:09:23;26;21;
71858;PMS5003;59713;50.866;4.324;2024-02-21T04:09:23;26;21;
71858;PMS5003;59713;50.866;4.324;2024-02-21T04:10:23;26;21;
71858;PMS5003;59713;50.866;4.324;2024-02-21T04:11:23;19;16;
71858;PMS5003;59713;50.866;4.324;2024-02-21T04:12:23;19;16;
71858;PMS5003;59713;50.866;4.324;2024-02-21T04:13:23;19;16;
71858;PMS5003;59713;50.866;4.324;2024-02-21T04:14:23;19;19;
71858;PMS5003;59713;50.866;4.324;2024-02-21T04:15:24;19;19;
71858;PMS5003;59713;50.866;4.324;2024-02-21T04:16:23;19;19;
71858;PMS5003;59713;50.866;4.324;2024-02-21T04:17:23;22;17;
71858;PMS5003;59713;50.866;4.324;2024-02-21T04:18:23;22;17;
71858;PMS5003;59713;50.866;4.324;2024-02-21T04:18:23;22;17;
71858;PMS5003;59713;50.866;4.324;2024-02-21T04:19:23;22;17;
71858;PMS5003;59713;50.866;4.324;2024-02-21T04:20:23;23;20;
71858;PMS5003;59713;50.866;4.324;2024-02-21T04:21:23;23;20;
71858;PMS5003;59713;50.866;4.324;2024-02-21T04:22:23;23;20;
71858;PMS5003;59713;50.866;4.324;2024-02-21T04:23:23;26;18;
71858;PMS5003;59713;50.866;4.324;2024-02-21T04:24:23;26;18;
71858;PMS5003;59713;50.866;4.324;2024-02-21T04:25:24;26;18;
71858;PMS5003;59713;50.866;4.324;2024-02-21T04:26:23;19;16;
71858;PMS5003;59713;50.866;4.324;2024-02-21T04:27:23;19;16;
71858;PMS5003;59713;50.866;4.324;2024-02-21T04:27:23;19;16;
71858;PMS5003;59713;50.866;4.324;2024-02-21T04:28:23;19;16;
71858;PMS5003;59713;50.866;4.324;2024-02-21T04:29:23;22;16;
71858;PMS5003;59713;50.866;4.324;2024-02-21T04:30:25;22;16;
71858;PMS5003;59713;50.866;4.324;2024-02-21T04:31:23;22;16;
71858;PMS5003;59713;50.866;4.324;2024-02-21T04:32:23;21;18;
71858;PMS5003;59713;50.866;4.324;2024-02-21T04:33:24;21;18;
71858;PMS5003;59713;50.866;4.324;2024-02-21T04:34:23;21;18;
71858;PMS5003;59713;50.866;4.324;2024-02-21T04:35:23;24;19;
71858;PMS5003;59713;50.866;4.324;2024-02-21T04:36:23;24;19;
71858;PMS5003;59713;50.866;4.324;2024-02-21T04:36:23;24;19;
71858;PMS5003;59713;50.866;4.324;2024-02-21T04:37:24;24;19;
71858;PMS5003;59713;50.866;4.324;2024-02-21T04:38:23;19;18;
71858;PMS5003;59713;50.866;4.324;2024-02-21T04:39:23;19;18;
71858;PMS5003;59713;50.866;4.324;2024-02-21T04:40:23;19;18;
71858;PMS5003;59713;50.866;4.324;2024-02-21T04:41:23;18;16;
71858;PMS5003;59713;50.866;4.324;2024-02-21T04:42:23;18;16;
71858;PMS5003;59713;50.866;4.324;2024-02-21T04:43:24;18;16;
71858;PMS5003;59713;50.866;4.324;2024-02-21T04:44:23;18;16;
71858;PMS5003;59713;50.866;4.324;2024-02-21T04:45:24;18;16;
71858;PMS5003;59713;50.866;4.324;2024-02-21T04:46:23;18;16;
71858;PMS5003;59713;50.866;4.324;2024-02-21T04:46:24;18;16;
71858;PMS5003;59713;50.866;4.324;2024-02-21T04:47:24;24;20;
71858;PMS5003;59713;50.866;4.324;2024-02-21T04:48:23;24;20;
71858;PMS5003;59713;50.866;4.324;2024-02-21T04:49:23;24;20;
71858;PMS5003;59713;50.866;4.324;2024-02-21T04:50:23;14;13;
71858;PMS5003;59713;50.866;4.324;2024-02-21T04:51:24;14;13;
71858;PMS5003;59713;50.866;4.324;2024-02-21T04:52:23;14;13;
71858;PMS5003;59713;50.866;4.324;2024-02-21T04:53:23;17;14;
71858;PMS5003;59713;50.866;4.324;2024-02-21T04:54:24;17;14;
71858;PMS5003;59713;50.866;4.324;2024-02-21T04:55:24;17;14;
71858;PMS5003;59713;50.866;4.324;2024-02-21T04:55:24;17;14;
71858;PMS5003;59713;50.866;4.324;2024-02-21T04:56:23;25;18;
71858;PMS5003;59713;50.866;4.324;2024-02-21T04:57:24;25;18;
71858;PMS5003;59713;50.866;4.324;2024-02-21T04:58:24;25;18;
71858;PMS5003;59713;50.866;4.324;2024-02-21T04:59:23;19;17;
71858;PMS5003;59713;50.866;4.324;2024-02-21T05:00:24;19;17;
71858;PMS5003;59713;50.866;4.324;2024-02-21T05:01:24;19;17;
71858;PMS5003;59713;50.866;4.324;2024-02-21T05:02:24;15;14;
71858;PMS5003;59713;50.866;4.324;2024-02-21T05:03:24;15;14;
71858;PMS5003;59713;50.866;4.324;2024-02-21T05:04:24;15;14;
71858;PMS5003;59713;50.866;4.324;2024-02-21T05:04:24;15;14;
71858;PMS5003;59713;50.866;4.324;2024-02-21T05:05:24;21;15;
71858;PMS5003;59713;50.866;4.324;2024-02-21T05:06:24;21;15;
71858;PMS5003;59713;50.866;4.324;2024-02-21T05:07:24;21;15;
71858;PMS5003;59713;50.866;4.324;2024-02-21T05:08:24;18;16;
71858;PMS5003;59713;50.866;4.324;2024-02-21T05:09:24;18;16;
71858;PMS5003;59713;50.866;4.324;2024-02-21T05:10:24;18;16;
71858;PMS5003;59713;50.866;4.324;2024-02-21T05:11:24;24;16;
71858;PMS5003;59713;50.866;4.324;2024-02-21T05:12:24;24;16;
71858;PMS5003;59713;50.866;4.324;2024-02-21T05:13:24;24;16;
71858;PMS5003;59713;50.866;4.324;2024-02-21T05:13:24;24;16;
71858;PMS5003;59713;50.866;4.324;2024-02-21T05:14:24;21;17;
71858;PMS5003;59713;50.866;4.324;2024-02-21T05:15:24;21;17;
71858;PMS5003;59713;50.866;4.324;2024-02-21T05:16:24;21;17;
71858;PMS5003;59713;50.866;4.324;2024-02-21T05:17:24;21;17;
71858;PMS5003;59713;50.866;4.324;2024-02-21T05:18:24;21;17;
71858;PMS5003;59713;50.866;4.324;2024-02-21T05:19:24;21;17;
71858;PMS5003;59713;50.866;4.324;2024-02-21T05:20:24;23;16;
71858;PMS5003;59713;50.866;4.324;2024-02-21T05:21:24;23;16;
71858;PMS5003;59713;50.866;4.324;2024-02-21T05:22:24;23;16;
71858;PMS5003;59713;50.866;4.324;2024-02-21T05:22:24;23;16;
71858;PMS5003;59713;50.866;4.324;2024-02-21T05:23:24;16;14;
71858;PMS5003;59713;50.866;4.324;2024-02-21T05:24:24;16;14;
71858;PMS5003;59713;50.866;4.324;2024-02-21T05:25:24;16;14;
71858;PMS5003;59713;50.866;4.324;2024-02-21T05:26:24;18;15;
71858;PMS5003;59713;50.866;4.324;2024-02-21T05:27:24;18;15;
71858;PMS5003;59713;50.866;4.324;2024-02-21T05:28:24;18;15;
71858;PMS5003;59713;50.866;4.324;2024-02-21T05:29:24;18;16;
71858;PMS5003;59713;50.866;4.324;2024-02-21T05:30:24;18;16;
71858;PMS5003;59713;50.866;4.324;2024-02-21T05:31:24;18;16;
71858;PMS5003;59713;50.866;4.324;2024-02-21T05:31:24;18;16;
71858;PMS5003;59713;50.866;4.324;2024-02-21T05:32:24;14;11;
71858;PMS5003;59713;50.866;4.324;2024-02-21T05:33:24;14;11;
71858;PMS5003;59713;50.866;4.324;2024-02-21T05:34:24;14;11;
71858;PMS5003;59713;50.866;4.324;2024-02-21T05:35:25;17;14;
71858;PMS5003;59713;50.866;4.324;2024-02-21T05:36:24;17;14;
71858;PMS5003;59713;50.866;4.324;2024-02-21T05:37:24;17;14;
71858;PMS5003;59713;50.866;4.324;2024-02-21T05:38:24;19;15;
71858;PMS5003;59713;50.866;4.324;2024-02-21T05:39:24;19;15;
71858;PMS5003;59713;50.866;4.324;2024-02-21T05:40:24;19;15;
71858;PMS5003;59713;50.866;4.324;2024-02-21T05:40:24;19;15;
71858;PMS5003;59713;50.866;4.324;2024-02-21T05:41:24;18;15;
71858;PMS5003;59713;50.866;4.324;2024-02-21T05:42:24;18;15;
71858;PMS5003;59713;50.866;4.324;2024-02-21T05:43:24;18;15;
71858;PMS5003;59713;50.866;4.324;2024-02-21T05:44:24;16;13;
71858;PMS5003;59713;50.866;4.324;2024-02-21T05:45:24;16;13;
71858;PMS5003;59713;50.866;4.324;2024-02-21T05:46:24;16;13;
71858;PMS5003;59713;50.866;4.324;2024-02-21T05:47:24;17;15;
71858;PMS5003;59713;50.866;4.324;2024-02-21T05:48:24;17;15;
71858;PMS5003;59713;50.866;4.324;2024-02-21T05:49:24;17;15;
71858;PMS5003;59713;50.866;4.324;2024-02-21T05:49:24;17;15;
71858;PMS5003;59713;50.866;4.324;2024-02-21T05:50:24;15;13;
71858;PMS5003;59713;50.866;4.324;2024-02-21T05:51:24;15;13;
71858;PMS5003;59713;50.866;4.324;2024-02-21T05:52:24;15;13;
71858;PMS5003;59713;50.866;4.324;2024-02-21T05:53:24;16;14;
71858;PMS5003;59713;50.866;4.324;2024-02-21T05:54:24;16;14;
71858;PMS5003;59713;50.866;4.324;2024-02-21T05:55:24;16;14;
71858;PMS5003;59713;50.866;4.324;2024-02-21T05:56:24;16;14;
71858;PMS5003;59713;50.866;4.324;2024-02-21T05:57:24;16;14;
71858;PMS5003;59713;50.866;4.324;2024-02-21T05:58:24;16;14;
71858;PMS5003;59713;50.866;4.324;2024-02-21T05:58:24;16;14;